createdAt,value
2017-09-05T00:01:44.336Z,15.84
2017-09-05T00:04:11.843Z,15.52
2017-09-05T00:06:39.350Z,15.77
2017-09-05T00:09:12.486Z,15.80
2017-09-05T00:11:42.579Z,15.63
2017-09-05T00:17:30.887Z,15.78
2017-09-05T00:20:00.839Z,15.82
2017-09-05T00:22:47.239Z,15.89
2017-09-05T00:25:14.759Z,15.68
2017-09-05T00:27:42.260Z,15.84
2017-09-05T00:30:09.763Z,15.78
2017-09-05T00:32:37.260Z,15.83
2017-09-05T00:35:04.769Z,16.01
2017-09-05T00:37:32.302Z,15.94
2017-09-05T00:39:59.804Z,15.98
2017-09-05T00:42:27.348Z,15.64
2017-09-05T00:44:54.876Z,15.57
2017-09-05T00:47:22.392Z,15.69
2017-09-05T00:49:49.944Z,15.59
2017-09-05T00:52:17.460Z,15.64
2017-09-05T00:54:44.967Z,15.56
2017-09-05T00:57:12.467Z,15.53
2017-09-05T00:59:39.996Z,15.62
2017-09-05T01:02:07.496Z,15.81
2017-09-05T01:04:35.002Z,15.85
2017-09-05T01:07:02.506Z,15.99
2017-09-05T01:09:30.034Z,15.85
2017-09-05T01:11:57.554Z,15.65
2017-09-05T01:14:25.080Z,15.48
2017-09-05T01:16:52.589Z,15.40
2017-09-05T01:19:20.096Z,15.47
2017-09-05T01:21:47.605Z,15.38
2017-09-05T01:24:15.126Z,15.33
2017-09-05T01:26:42.646Z,15.30
2017-09-05T01:29:10.196Z,15.22
2017-09-05T01:31:37.715Z,15.09
2017-09-05T01:34:05.247Z,15.18
2017-09-05T01:36:32.768Z,15.11
2017-09-05T01:39:00.287Z,15.01
2017-09-05T01:41:27.808Z,15.04
2017-09-05T01:43:55.312Z,15.13
2017-09-05T01:46:22.834Z,15.15
2017-09-05T01:48:50.370Z,15.12
2017-09-05T01:51:17.933Z,14.92
2017-09-05T01:53:45.459Z,15.25
2017-09-05T01:56:12.987Z,14.97
2017-09-05T01:58:40.521Z,14.88
2017-09-05T02:01:08.027Z,14.89
2017-09-05T02:03:35.542Z,15.07
2017-09-05T02:06:03.047Z,15.05
2017-09-05T02:08:30.547Z,15.12
2017-09-05T02:10:58.066Z,14.83
2017-09-05T02:13:25.575Z,14.66
2017-09-05T02:15:53.097Z,14.54
2017-09-05T02:18:20.607Z,14.61
2017-09-05T02:20:48.114Z,15.07
2017-09-05T02:23:15.631Z,15.09
2017-09-05T02:25:43.147Z,15.08
2017-09-05T02:28:10.670Z,15.28
2017-09-05T02:30:38.173Z,15.15
2017-09-05T02:33:05.672Z,15.14
2017-09-05T02:35:33.183Z,15.21
2017-09-05T02:38:00.699Z,15.37
2017-09-05T02:40:28.222Z,15.15
2017-09-05T02:42:55.744Z,15.22
2017-09-05T02:45:23.313Z,15.22
2017-09-05T02:47:50.827Z,15.13
2017-09-05T02:50:18.339Z,14.99
2017-09-05T02:52:46.002Z,15.29
2017-09-05T02:55:13.525Z,14.99
2017-09-05T02:57:41.052Z,14.71
2017-09-05T03:00:08.558Z,14.67
2017-09-05T03:02:36.082Z,14.89
2017-09-05T03:05:03.643Z,15.06
2017-09-05T03:07:31.163Z,15.06
2017-09-05T03:09:58.675Z,15.07
2017-09-05T03:12:26.196Z,15.19
2017-09-05T03:14:53.704Z,14.98
2017-09-05T03:17:21.219Z,14.50
2017-09-05T03:19:48.753Z,14.68
2017-09-05T03:22:16.250Z,14.74
2017-09-05T03:24:43.754Z,14.81
2017-09-05T03:27:11.276Z,14.35
2017-09-05T03:29:38.782Z,14.24
2017-09-05T03:32:06.297Z,14.22
2017-09-05T03:34:33.902Z,14.25
2017-09-05T03:37:01.408Z,14.17
2017-09-05T03:39:28.925Z,14.20
2017-09-05T03:41:56.436Z,14.11
2017-09-05T03:44:23.939Z,14.13
2017-09-05T03:46:51.462Z,14.03
2017-09-05T03:49:18.967Z,14.05
2017-09-05T03:51:46.507Z,14.05
2017-09-05T03:54:14.018Z,14.15
2017-09-05T03:56:41.515Z,14.16
2017-09-05T03:59:09.051Z,14.15
2017-09-05T04:01:36.559Z,14.06
2017-09-05T04:04:04.064Z,14.09
2017-09-05T04:06:31.602Z,14.11
2017-09-05T04:08:59.117Z,14.09
2017-09-05T04:11:26.614Z,14.19
2017-09-05T04:13:54.129Z,14.27
2017-09-05T04:16:21.633Z,14.35
2017-09-05T04:18:49.141Z,14.32
2017-09-05T04:21:16.645Z,14.22
2017-09-05T04:23:44.170Z,14.09
2017-09-05T04:26:11.851Z,14.34
2017-09-05T04:28:39.410Z,14.44
2017-09-05T04:31:06.919Z,14.37
2017-09-05T04:33:34.451Z,14.39
2017-09-05T04:36:01.950Z,14.46
2017-09-05T04:38:29.475Z,14.54
2017-09-05T04:40:56.989Z,14.64
2017-09-05T04:43:24.661Z,14.51
2017-09-05T04:45:52.164Z,14.25
2017-09-05T04:48:19.706Z,14.19
2017-09-05T04:50:47.215Z,14.32
2017-09-05T04:53:14.723Z,14.31
2017-09-05T04:55:42.265Z,14.16
2017-09-05T04:58:09.760Z,14.24
2017-09-05T05:00:37.283Z,14.24
2017-09-05T05:03:04.812Z,14.17
2017-09-05T05:05:32.316Z,14.39
2017-09-05T05:07:59.853Z,14.58
2017-09-05T05:10:27.397Z,14.67
2017-09-05T05:12:54.908Z,14.63
2017-09-05T05:15:22.418Z,14.55
2017-09-05T05:17:49.939Z,14.53
2017-09-05T05:20:17.456Z,14.42
2017-09-05T05:22:44.962Z,14.57
2017-09-05T05:25:12.484Z,14.64
2017-09-05T05:27:39.991Z,14.92
2017-09-05T05:30:07.505Z,14.78
2017-09-05T05:32:35.012Z,14.70
2017-09-05T05:35:02.531Z,14.77
2017-09-05T05:37:30.046Z,14.65
2017-09-05T05:39:57.568Z,14.84
2017-09-05T05:42:25.103Z,15.02
2017-09-05T05:44:52.629Z,15.16
2017-09-05T05:47:20.140Z,15.11
2017-09-05T05:49:47.723Z,15.34
2017-09-05T05:52:15.284Z,15.51
2017-09-05T05:54:42.808Z,15.65
2017-09-05T05:57:10.326Z,16.01
2017-09-05T05:59:37.847Z,15.97
2017-09-05T06:02:05.356Z,15.41
2017-09-05T06:04:32.866Z,15.24
2017-09-05T06:07:00.375Z,15.66
2017-09-05T06:09:27.906Z,15.86
2017-09-05T06:11:55.402Z,15.50
2017-09-05T06:14:22.903Z,15.57
2017-09-05T06:16:50.411Z,15.76
2017-09-05T06:19:17.921Z,15.83
2017-09-05T06:21:45.459Z,15.96
2017-09-05T06:24:12.966Z,16.48
2017-09-05T06:26:40.504Z,16.86
2017-09-05T06:29:08.020Z,17.36
2017-09-05T06:31:35.539Z,17.16
2017-09-05T06:34:03.070Z,17.09
2017-09-05T06:36:30.593Z,17.54
2017-09-05T06:38:58.135Z,17.71
2017-09-05T06:41:25.652Z,17.83
2017-09-05T06:43:53.156Z,18.35
2017-09-05T06:46:20.700Z,18.45
2017-09-05T06:48:48.246Z,18.84
2017-09-05T06:51:15.769Z,18.79
2017-09-05T06:53:43.287Z,18.99
2017-09-05T06:56:10.807Z,19.29
2017-09-05T06:58:38.332Z,19.13
2017-09-05T07:01:05.855Z,19.53
2017-09-05T07:03:33.402Z,19.70
2017-09-05T07:06:00.926Z,20.52
2017-09-05T07:08:28.443Z,20.30
2017-09-05T07:10:55.998Z,20.92
2017-09-05T07:13:23.518Z,21.79
2017-09-05T07:15:51.038Z,22.06
2017-09-05T07:18:18.543Z,21.50
2017-09-05T07:20:46.073Z,21.34
2017-09-05T07:23:13.591Z,22.92
2017-09-05T07:25:41.096Z,24.83
2017-09-05T07:28:08.615Z,26.45
2017-09-05T07:30:36.159Z,26.89
2017-09-05T07:33:03.708Z,26.63
2017-09-05T07:35:31.247Z,22.75
2017-09-05T07:37:58.770Z,23.53
2017-09-05T07:40:26.292Z,23.44
2017-09-05T07:42:53.819Z,23.87
2017-09-05T07:45:21.348Z,23.56
2017-09-05T07:47:48.867Z,22.03
2017-09-05T07:50:16.391Z,22.31
2017-09-05T07:52:43.978Z,23.66
2017-09-05T07:55:11.483Z,25.18
2017-09-05T07:57:39.158Z,25.83
2017-09-05T08:00:06.663Z,25.02
2017-09-05T08:02:34.357Z,24.35
2017-09-05T08:05:01.898Z,23.88
2017-09-05T08:07:29.410Z,27.16
2017-09-05T08:09:56.922Z,28.77
2017-09-05T08:12:24.458Z,26.71
2017-09-05T08:14:52.090Z,22.37
2017-09-05T08:17:19.665Z,22.32
2017-09-05T08:19:47.183Z,22.64
2017-09-05T08:22:14.732Z,22.44
2017-09-05T08:24:42.237Z,25.51
2017-09-05T08:27:09.735Z,25.94
2017-09-05T08:29:37.410Z,26.23
2017-09-05T08:32:04.942Z,24.83
2017-09-05T08:34:32.448Z,25.40
2017-09-05T08:36:59.962Z,26.16
2017-09-05T08:39:27.470Z,25.91
2017-09-05T08:41:55.019Z,29.31
2017-09-05T08:44:22.528Z,29.83
2017-09-05T08:46:50.207Z,27.63
2017-09-05T08:49:17.767Z,27.95
2017-09-05T08:51:45.360Z,30.25
2017-09-05T08:54:12.864Z,29.57
2017-09-05T08:56:40.696Z,31.70
2017-09-05T08:59:08.238Z,34.13
2017-09-05T09:01:35.803Z,32.81
2017-09-05T09:04:03.924Z,30.02
2017-09-05T09:06:31.441Z,27.61
2017-09-05T09:08:58.954Z,29.41
2017-09-05T09:11:26.467Z,29.64
2017-09-05T09:13:54.000Z,28.15
2017-09-05T09:16:21.525Z,28.48
2017-09-05T09:18:49.032Z,28.73
2017-09-05T09:21:16.572Z,29.66
2017-09-05T09:23:44.184Z,28.37
2017-09-05T09:26:11.724Z,30.17
2017-09-05T09:28:39.245Z,27.88
2017-09-05T09:31:06.763Z,32.39
2017-09-05T09:33:34.273Z,33.02
2017-09-05T09:36:01.784Z,33.62
2017-09-05T09:38:29.338Z,33.12
2017-09-05T09:40:56.934Z,31.88
2017-09-05T09:43:24.486Z,35.97
2017-09-05T09:45:52.002Z,32.88
2017-09-05T09:48:19.516Z,35.82
2017-09-05T09:50:47.074Z,37.24
2017-09-05T09:53:14.573Z,39.59
2017-09-05T09:55:42.080Z,40.42
2017-09-05T09:58:09.607Z,39.05
2017-09-05T10:00:37.192Z,37.32
2017-09-05T10:03:05.062Z,39.13
2017-09-05T10:05:32.615Z,38.47
2017-09-05T10:08:00.133Z,41.54
2017-09-05T10:10:27.663Z,37.49
2017-09-05T10:12:55.221Z,38.00
2017-09-05T10:15:22.749Z,38.58
2017-09-05T10:17:50.270Z,39.34
2017-09-05T10:20:17.801Z,39.79
2017-09-05T10:22:45.325Z,34.36
2017-09-05T10:25:12.839Z,36.21
2017-09-05T10:27:40.384Z,38.15
2017-09-05T10:30:07.926Z,39.28
2017-09-05T10:32:35.442Z,37.36
2017-09-05T10:35:02.965Z,41.37
2017-09-05T10:37:30.496Z,43.05
2017-09-05T10:39:58.039Z,41.31
2017-09-05T10:42:25.584Z,42.16
2017-09-05T10:44:53.105Z,39.83
2017-09-05T10:47:20.608Z,38.68
2017-09-05T10:49:48.106Z,38.42
2017-09-05T10:52:15.613Z,38.13
2017-09-05T10:54:43.146Z,37.01
2017-09-05T10:57:10.713Z,35.86
2017-09-05T10:59:38.249Z,38.48
2017-09-05T11:02:06.011Z,33.93
2017-09-05T11:04:33.539Z,40.23
2017-09-05T11:07:01.043Z,37.53
2017-09-05T11:09:28.548Z,36.80
2017-09-05T11:11:56.065Z,35.07
2017-09-05T11:14:23.747Z,38.27
2017-09-05T11:16:51.270Z,39.91
2017-09-05T11:19:18.867Z,37.30
2017-09-05T11:21:46.628Z,43.39
2017-09-05T11:24:14.145Z,36.20
2017-09-05T11:26:41.676Z,36.74
2017-09-05T11:29:09.287Z,40.23
2017-09-05T11:31:36.820Z,39.20
2017-09-05T11:34:04.356Z,38.33
2017-09-05T11:36:31.871Z,41.74
2017-09-05T11:38:59.387Z,35.89
2017-09-05T11:41:26.941Z,36.45
2017-09-05T11:43:54.444Z,38.09
2017-09-05T11:46:21.976Z,34.10
2017-09-05T11:48:49.506Z,33.86
2017-09-05T11:51:17.041Z,37.63
2017-09-05T11:53:44.565Z,35.80
2017-09-05T11:56:12.114Z,35.25
2017-09-05T11:58:39.616Z,33.97
2017-09-05T12:01:07.133Z,33.72
2017-09-05T12:03:34.644Z,34.61
2017-09-05T12:06:02.180Z,34.61
2017-09-05T12:08:29.712Z,34.30
2017-09-05T12:10:57.231Z,29.22
2017-09-05T12:13:24.760Z,31.22
2017-09-05T12:15:52.279Z,31.51
2017-09-05T12:18:19.830Z,30.38
2017-09-05T12:20:47.357Z,30.51
2017-09-05T12:23:14.883Z,29.95
2017-09-05T12:25:42.395Z,30.44
2017-09-05T12:28:10.031Z,28.91
2017-09-05T12:30:37.553Z,29.07
2017-09-05T12:33:05.092Z,28.92
2017-09-05T12:35:32.608Z,29.48
2017-09-05T12:38:00.173Z,29.09
2017-09-05T12:40:27.676Z,28.07
2017-09-05T12:42:55.218Z,27.07
2017-09-05T12:45:22.734Z,27.46
2017-09-05T12:47:50.243Z,27.57
2017-09-05T12:50:17.795Z,29.91
2017-09-05T12:52:45.315Z,34.80
2017-09-05T12:55:12.827Z,34.20
2017-09-05T12:57:40.328Z,34.11
2017-09-05T13:00:08.059Z,33.13
2017-09-05T13:02:35.592Z,31.94
2017-09-05T13:05:03.110Z,29.31
2017-09-05T13:07:30.627Z,29.09
2017-09-05T13:09:58.165Z,28.85
2017-09-05T13:12:25.694Z,28.96
2017-09-05T13:14:53.197Z,29.57
2017-09-05T13:17:20.724Z,29.10
2017-09-05T13:19:48.239Z,29.22
2017-09-05T13:22:15.748Z,29.13
2017-09-05T13:24:43.446Z,29.43
2017-09-05T13:27:10.959Z,27.10
2017-09-05T13:29:38.665Z,26.16
2017-09-05T13:32:06.328Z,25.97
2017-09-05T13:34:33.855Z,26.68
2017-09-05T13:37:01.502Z,26.70
2017-09-05T13:39:29.023Z,25.86
2017-09-05T13:41:56.541Z,25.33
2017-09-05T13:44:24.077Z,24.14
2017-09-05T13:46:51.619Z,24.29
2017-09-05T13:49:20.863Z,23.84
2017-09-05T13:51:48.632Z,23.98
2017-09-05T13:54:16.494Z,24.35
2017-09-05T13:56:44.116Z,25.37
2017-09-05T13:59:11.636Z,26.04
2017-09-05T14:01:39.261Z,27.96
2017-09-05T14:04:06.788Z,28.90
2017-09-05T14:06:34.316Z,30.36
2017-09-05T14:09:01.881Z,32.28
2017-09-05T14:11:29.423Z,32.46
2017-09-05T14:13:56.968Z,31.78
2017-09-05T14:16:24.484Z,30.05
2017-09-05T14:18:52.012Z,30.45
2017-09-05T14:21:19.538Z,28.44
2017-09-05T14:23:47.061Z,27.99
2017-09-05T14:26:14.585Z,27.80
2017-09-05T14:28:42.108Z,27.70
2017-09-05T14:31:09.632Z,27.61
2017-09-05T14:33:37.152Z,27.50
2017-09-05T14:36:04.655Z,27.11
2017-09-05T14:38:32.169Z,27.60
2017-09-05T14:40:59.947Z,27.24
2017-09-05T14:43:27.669Z,27.40
2017-09-05T14:45:55.182Z,27.21
2017-09-05T14:48:22.684Z,27.26
2017-09-05T14:50:50.226Z,26.97
2017-09-05T14:53:17.810Z,26.21
2017-09-05T14:55:45.350Z,26.95
2017-09-05T14:58:12.913Z,27.34
2017-09-05T15:00:40.468Z,26.15
2017-09-05T15:03:08.002Z,25.84
2017-09-05T15:05:35.530Z,25.65
2017-09-05T15:08:03.351Z,25.55
2017-09-05T15:10:30.881Z,25.34
2017-09-05T15:12:58.469Z,25.52
2017-09-05T15:15:26.036Z,25.42
2017-09-05T15:17:53.580Z,25.50
2017-09-05T15:20:21.209Z,25.55
2017-09-05T15:22:48.745Z,24.94
2017-09-05T15:25:16.274Z,24.79
2017-09-05T15:27:43.793Z,24.81
2017-09-05T15:30:11.499Z,24.56
2017-09-05T15:32:39.165Z,24.46
2017-09-05T15:35:06.695Z,24.13
2017-09-05T15:37:34.245Z,25.07
2017-09-05T15:40:01.808Z,25.73
2017-09-05T15:42:29.331Z,25.73
2017-09-05T15:44:56.864Z,25.77
2017-09-05T15:47:24.415Z,25.60
2017-09-05T15:49:51.920Z,25.73
2017-09-05T15:52:19.450Z,25.73
2017-09-05T15:54:46.965Z,25.73
2017-09-05T15:57:14.505Z,25.77
2017-09-05T15:59:42.019Z,25.82
2017-09-05T16:02:09.524Z,25.68
2017-09-05T16:04:37.067Z,25.52
2017-09-05T16:07:04.573Z,25.61
2017-09-05T16:09:32.187Z,25.11
2017-09-05T16:11:59.771Z,25.17
2017-09-05T16:14:27.292Z,24.96
2017-09-05T16:16:54.811Z,24.80
2017-09-05T16:19:22.311Z,24.32
2017-09-05T16:21:49.852Z,23.96
2017-09-05T16:24:17.363Z,24.00
2017-09-05T16:26:44.878Z,23.77
2017-09-05T16:29:12.406Z,23.65
2017-09-05T16:31:39.926Z,23.29
2017-09-05T16:34:07.459Z,22.91
2017-09-05T16:36:35.020Z,22.78
2017-09-05T16:39:02.539Z,22.84
2017-09-05T16:41:30.062Z,22.95
2017-09-05T16:43:57.708Z,23.17
2017-09-05T16:46:25.340Z,23.53
2017-09-05T16:48:52.946Z,23.07
2017-09-05T16:51:20.459Z,23.59
2017-09-05T16:53:47.972Z,23.61
2017-09-05T16:56:15.523Z,23.28
2017-09-05T16:58:43.110Z,23.21
2017-09-05T17:01:10.648Z,22.63
2017-09-05T17:03:38.189Z,23.12
2017-09-05T17:06:05.745Z,23.41
2017-09-05T17:08:33.271Z,23.73
2017-09-05T17:11:00.772Z,23.41
2017-09-05T17:13:28.279Z,23.35
2017-09-05T17:15:55.808Z,23.02
2017-09-05T17:18:23.354Z,22.91
2017-09-05T17:20:50.922Z,22.86
2017-09-05T17:23:18.446Z,22.82
2017-09-05T17:25:45.984Z,22.64
2017-09-05T17:28:13.504Z,22.69
2017-09-05T17:30:41.123Z,22.47
2017-09-05T17:33:08.656Z,22.36
2017-09-05T17:35:36.222Z,22.14
2017-09-05T17:38:03.795Z,21.98
2017-09-05T17:40:31.354Z,22.00
2017-09-05T17:42:58.926Z,22.53
2017-09-05T17:45:26.460Z,22.40
2017-09-05T17:47:53.968Z,22.06
2017-09-05T17:50:21.484Z,22.16
2017-09-05T17:52:49.005Z,21.80
2017-09-05T17:55:16.520Z,21.68
2017-09-05T17:57:44.044Z,21.39
2017-09-05T18:00:11.568Z,21.25
2017-09-05T18:02:39.083Z,21.03
2017-09-05T18:05:06.669Z,21.10
2017-09-05T18:07:34.193Z,20.66
2017-09-05T18:10:01.748Z,20.19
2017-09-05T18:12:29.264Z,20.24
2017-09-05T18:14:56.787Z,20.00
2017-09-05T18:17:24.302Z,20.01
2017-09-05T18:19:51.820Z,20.27
2017-09-05T18:22:19.344Z,20.12
2017-09-05T18:24:46.868Z,20.14
2017-09-05T18:27:14.395Z,20.22
2017-09-05T18:29:41.943Z,20.11
2017-09-05T18:32:09.479Z,20.17
2017-09-05T18:34:36.986Z,20.32
2017-09-05T18:37:04.490Z,20.18
2017-09-05T18:39:32.023Z,19.82
2017-09-05T18:41:59.552Z,19.62
2017-09-05T18:44:27.077Z,19.49
2017-09-05T18:46:54.605Z,19.47
2017-09-05T18:49:22.137Z,19.51
2017-09-05T18:51:49.681Z,19.58
2017-09-05T18:54:17.244Z,19.70
2017-09-05T18:56:44.831Z,19.57
2017-09-05T18:59:12.566Z,19.56
2017-09-05T19:01:40.102Z,19.51
2017-09-05T19:04:07.682Z,19.63
2017-09-05T19:06:35.238Z,19.70
2017-09-05T19:09:02.853Z,19.80
2017-09-05T19:11:30.404Z,19.96
2017-09-05T19:13:57.985Z,19.90
2017-09-05T19:16:25.529Z,19.86
2017-09-05T19:18:53.038Z,19.74
2017-09-05T19:21:21.042Z,19.60
2017-09-05T19:23:48.551Z,19.54
2017-09-05T19:26:16.103Z,19.56
2017-09-05T19:28:43.648Z,19.65
2017-09-05T19:31:11.202Z,19.64
2017-09-05T19:33:38.820Z,19.75
2017-09-05T19:36:06.356Z,20.01
2017-09-05T19:38:33.863Z,20.22
2017-09-05T19:41:01.405Z,20.20
2017-09-05T19:43:28.953Z,19.76
2017-09-05T19:45:56.537Z,19.63
2017-09-05T19:48:24.066Z,19.35
2017-09-05T19:50:51.576Z,19.62
2017-09-05T19:53:19.114Z,19.83
2017-09-05T19:55:46.657Z,19.59
2017-09-05T19:58:14.215Z,20.03
2017-09-05T20:00:41.767Z,19.67
2017-09-05T20:03:09.329Z,19.62
2017-09-05T20:05:36.844Z,19.97
2017-09-05T20:08:04.381Z,19.47
2017-09-05T20:10:31.933Z,19.56
2017-09-05T20:12:59.448Z,19.51
2017-09-05T20:15:26.993Z,19.59
2017-09-05T20:17:54.515Z,19.25
2017-09-05T20:20:22.052Z,19.01
2017-09-05T20:22:49.607Z,18.93
2017-09-05T20:25:17.188Z,18.74
2017-09-05T20:27:44.712Z,18.64
2017-09-05T20:30:12.277Z,18.62
2017-09-05T20:32:39.785Z,18.88
2017-09-05T20:35:07.301Z,18.76
2017-09-05T20:37:34.820Z,18.52
2017-09-05T20:40:02.363Z,18.35
2017-09-05T20:42:29.928Z,18.40
2017-09-05T20:44:57.567Z,18.53
2017-09-05T20:47:25.101Z,18.71
2017-09-05T20:49:52.602Z,18.34
2017-09-05T20:52:20.125Z,18.55
2017-09-05T20:54:47.671Z,18.57
2017-09-05T20:57:15.176Z,18.83
2017-09-05T20:59:42.749Z,18.59
2017-09-05T21:02:10.278Z,18.47
2017-09-05T21:04:37.915Z,18.28
2017-09-05T21:07:05.450Z,18.56
2017-09-05T21:09:32.985Z,18.44
2017-09-05T21:12:01.490Z,18.66
2017-09-05T21:14:29.040Z,18.83
2017-09-05T21:16:56.686Z,18.69
2017-09-05T21:19:24.197Z,18.40
2017-09-05T21:21:51.703Z,18.32
2017-09-05T21:24:19.225Z,18.25
2017-09-05T21:26:46.766Z,18.40
2017-09-05T21:29:14.276Z,18.49
2017-09-05T21:31:41.802Z,18.44
2017-09-05T21:34:09.337Z,18.22
2017-09-05T21:36:36.996Z,18.17
2017-09-05T21:39:04.505Z,18.56
2017-09-05T21:41:32.066Z,18.48
2017-09-05T21:43:59.590Z,18.31
2017-09-05T21:46:27.107Z,18.29
2017-09-05T21:48:54.712Z,17.96
2017-09-05T21:51:22.252Z,17.81
2017-09-05T21:53:49.772Z,18.11
2017-09-05T21:56:17.435Z,18.04
2017-09-05T21:58:44.947Z,17.81
2017-09-05T22:01:12.474Z,17.98
2017-09-05T22:03:40.023Z,18.10
2017-09-05T22:06:07.585Z,18.16
2017-09-05T22:08:35.156Z,18.13
2017-09-05T22:11:02.688Z,18.09
2017-09-05T22:13:30.212Z,18.13
2017-09-05T22:15:57.733Z,18.08
2017-09-05T22:18:30.935Z,18.02
2017-09-05T22:21:04.013Z,17.66
2017-09-05T22:23:31.519Z,17.66
2017-09-05T22:26:04.602Z,17.94
2017-09-05T22:28:37.745Z,18.29
2017-09-05T22:31:05.267Z,18.16
2017-09-05T22:33:32.912Z,17.97
2017-09-05T22:36:00.449Z,17.84
2017-09-05T22:38:27.959Z,17.80
2017-09-05T22:40:55.543Z,17.83
2017-09-05T22:43:24.114Z,17.83
2017-09-05T22:45:51.626Z,17.74
2017-09-05T22:48:19.130Z,17.85
2017-09-05T22:50:46.637Z,18.27
2017-09-05T22:53:14.180Z,18.13
2017-09-05T22:55:41.703Z,18.21
2017-09-05T22:58:09.218Z,18.20
2017-09-05T23:00:36.739Z,18.13
2017-09-05T23:03:04.265Z,18.28
2017-09-05T23:05:31.826Z,18.14
2017-09-05T23:07:59.384Z,17.85
2017-09-05T23:10:26.900Z,17.87
2017-09-05T23:12:54.416Z,17.85
2017-09-05T23:15:21.940Z,17.68
2017-09-05T23:17:49.457Z,17.80
2017-09-05T23:20:16.996Z,17.76
2017-09-05T23:22:44.526Z,17.70
2017-09-05T23:25:12.042Z,17.61
2017-09-05T23:27:39.553Z,17.53
2017-09-05T23:30:07.087Z,17.52
2017-09-05T23:32:34.602Z,17.56
2017-09-05T23:35:02.113Z,17.63
2017-09-05T23:37:29.668Z,17.87
2017-09-05T23:39:57.165Z,17.95
2017-09-05T23:42:24.686Z,17.88
2017-09-05T23:44:52.188Z,18.04
2017-09-05T23:47:19.698Z,18.17
2017-09-05T23:49:47.243Z,18.52
2017-09-05T23:52:14.762Z,18.65
2017-09-05T23:54:42.287Z,18.58
2017-09-05T23:57:09.784Z,18.49
2017-09-05T23:59:37.378Z,18.66
